Allamuchy Township, New Jersey
Current Conditions -  °F | °C
As of 9:25 AM on Monday 26 Jan 2015 (Local Time) from KSMQ Reporting Station
Light Snow Light Snow  
Wind Chill: 10°   Ceiling: 2000
Heat Index: 21°   Visibility: 0.75mi
Dew Point: 15°   Wind: 10mph
Humidity: 78%   Direction: 40°NE
Pressure: 29.97"   Gusts: NA
Location:  40.8661°N, 74.8361°W
Report Text: KSMQ 261425Z AUTO 04009KT 3/4SM -SN BKN020 OVC048 M06/M09 A2997 RMK AO2 P0000 T10611094 TSNO
Loading
Personal Weather Stations






























Interactive Weather Map New forecast layout! Learn more

10-Day Weather Forecast

Advertisements
Track Severe Weather on mobile